Time;durP1;ratioP1;P1;durP2;ratioP2;P2;SDS_P1;SDS_P2;PMS_P1;PMS_P2;Temp;Humidity;BMP_temperature;BMP_pressure;BME280_temperature;BME280_humidity;BME280_pressure;Samples;Min_cycle;Max_cycle;Signal;HPM_P1;HPM_P2
2022/05/16 00:01:45;;;;;;;2.83;2.20;;;17.20;59.20;;;;;;5030149;28;20052;-88
2022/05/16 00:04:10;;;;;;;4.30;2.60;;;17.20;59.50;;;;;;5037733;28;20018;-86
2022/05/16 00:06:36;;;;;;;6.15;2.45;;;17.10;59.60;;;;;;5051499;28;20025;-86
2022/05/16 00:09:03;;;;;;;3.42;2.45;;;17.10;59.70;;;;;;5050028;28;20017;-86
2022/05/16 00:11:28;;;;;;;4.13;2.40;;;17.10;59.80;;;;;;5049982;28;20029;-85
2022/05/16 00:13:54;;;;;;;4.53;2.20;;;17.10;60.00;;;;;;5033321;28;20034;-87
2022/05/16 00:16:20;;;;;;;5.13;2.22;;;17.10;60.00;;;;;;5029422;28;20371;-86
2022/05/16 00:18:45;;;;;;;5.43;2.58;;;17.00;60.00;;;;;;5053753;28;20032;-85
2022/05/16 00:21:11;;;;;;;3.38;2.22;;;17.00;60.10;;;;;;5053152;28;20016;-86
2022/05/16 00:23:37;;;;;;;5.35;2.83;;;16.90;60.10;;;;;;5038222;28;20034;-87
2022/05/16 00:26:06;;;;;;;3.55;2.67;;;16.80;60.00;;;;;;5033773;28;20025;-87
2022/05/16 00:28:31;;;;;;;4.45;2.78;;;16.60;60.20;;;;;;5039244;28;20025;-87
2022/05/16 00:30:57;;;;;;;3.63;2.33;;;16.40;60.60;;;;;;5036307;28;20034;-86
2022/05/16 00:33:22;;;;;;;5.43;2.70;;;16.40;61.10;;;;;;5033751;28;20038;-86
2022/05/16 00:35:48;;;;;;;5.50;2.75;;;16.40;61.40;;;;;;5034824;28;20052;-85
2022/05/16 00:38:14;;;;;;;3.63;2.55;;;16.30;61.50;;;;;;5034034;28;20041;-87
2022/05/16 00:40:39;;;;;;;5.03;2.97;;;16.30;61.70;;;;;;5033063;28;20029;-87
2022/05/16 00:43:09;;;;;;;4.63;3.25;;;16.30;61.80;;;;;;5032967;28;20390;-87
2022/05/16 00:45:35;;;;;;;5.03;2.92;;;16.20;62.10;;;;;;5019197;28;20025;-86
2022/05/16 00:48:02;;;;;;;5.95;3.10;;;16.20;62.30;;;;;;5032890;28;20029;-86
2022/05/16 00:50:29;;;;;;;6.50;3.45;;;16.20;62.50;;;;;;5042025;28;20036;-84
2022/05/16 00:52:56;;;;;;;3.90;2.85;;;16.20;62.50;;;;;;5056371;28;20021;-85
2022/05/16 00:55:26;;;;;;;4.10;3.08;;;16.20;62.60;;;;;;5035785;28;20030;-88
2022/05/16 00:57:55;;;;;;;5.35;2.80;;;16.20;62.80;;;;;;5032349;28;20034;-88
2022/05/16 01:00:23;;;;;;;8.52;3.50;;;16.20;62.80;;;;;;5031500;28;20022;-88
2022/05/16 01:05:43;;;;;;;5.05;2.63;;;16.10;63.00;;;;;;5031646;28;20029;-89
2022/05/16 01:08:12;;;;;;;5.95;3.00;;;16.10;62.70;;;;;;5031397;28;20040;-88
2022/05/16 01:10:38;;;;;;;4.45;2.95;;;16.10;62.90;;;;;;5034244;28;20025;-88
2022/05/16 01:13:04;;;;;;;7.10;3.00;;;16.00;63.00;;;;;;5031619;28;20033;-88
2022/05/16 01:15:36;;;;;;;5.70;2.65;;;16.00;63.10;;;;;;5034853;28;20027;-88
2022/05/16 01:18:02;;;;;;;5.53;2.80;;;15.90;63.20;;;;;;5030344;28;20026;-86
2022/05/16 01:21:13;;;;;;;3.05;2.42;;;15.90;63.00;;;;;;5030100;28;20022;-87
2022/05/16 01:23:52;;;;;;;5.57;2.30;;;15.80;63.10;;;;;;5021084;28;20078;-88
2022/05/16 01:26:21;;;;;;;3.95;2.10;;;15.70;63.00;;;;;;5031249;28;20030;-88
2022/05/16 01:28:47;;;;;;;4.32;2.60;;;15.60;63.00;;;;;;5031152;28;20025;-88
2022/05/16 01:31:13;;;;;;;3.88;2.58;;;15.60;63.10;;;;;;5028340;28;20136;-87
2022/05/16 01:33:39;;;;;;;6.63;2.70;;;15.60;63.30;;;;;;5026735;28;20549;-88
2022/05/16 01:36:05;;;;;;;3.67;2.28;;;15.50;63.30;;;;;;5030115;28;20441;-87
2022/05/16 01:38:31;;;;;;;2.42;2.22;;;15.50;63.50;;;;;;5030214;28;20029;-87
2022/05/16 01:41:05;;;;;;;2.80;2.30;;;15.50;63.70;;;;;;5034052;28;20488;-87
2022/05/16 01:43:43;;;;;;;3.63;2.40;;;15.50;63.90;;;;;;5033677;28;20335;-87
2022/05/16 01:46:10;;;;;;;4.40;2.58;;;15.50;64.00;;;;;;5028375;28;20027;-87
2022/05/16 01:48:36;;;;;;;11.15;2.58;;;15.40;63.70;;;;;;5031511;28;20025;-88
2022/05/16 01:51:05;;;;;;;3.15;2.42;;;15.40;63.70;;;;;;5032574;28;20075;-88
2022/05/16 01:53:31;;;;;;;5.90;2.20;;;15.40;63.90;;;;;;5031017;28;20037;-87
2022/05/16 01:55:57;;;;;;;4.43;2.60;;;15.40;64.00;;;;;;5030090;28;20439;-87
2022/05/16 01:58:24;;;;;;;2.72;2.45;;;15.40;64.10;;;;;;5031178;28;20029;-87
2022/05/16 02:00:50;;;;;;;3.90;2.55;;;15.30;64.30;;;;;;5031600;28;20067;-87
2022/05/16 02:03:16;;;;;;;4.43;2.47;;;15.30;64.30;;;;;;5027067;28;20029;-87
2022/05/16 02:05:43;;;;;;;2.78;2.40;;;15.30;64.30;;;;;;5029394;28;20037;-87
2022/05/16 02:08:09;;;;;;;4.30;2.30;;;15.30;64.50;;;;;;5032246;28;20013;-87
2022/05/16 02:10:35;;;;;;;3.47;2.30;;;15.30;64.60;;;;;;5024699;28;20033;-86
2022/05/16 02:13:03;;;;;;;2.15;2.05;;;15.40;64.70;;;;;;5033298;28;20033;-86
2022/05/16 02:15:32;;;;;;;4.00;2.33;;;15.40;64.70;;;;;;5031137;28;20053;-88
2022/05/16 02:17:58;;;;;;;2.97;2.00;;;15.40;64.70;;;;;;5035403;28;20063;-85
2022/05/16 02:20:25;;;;;;;2.40;2.20;;;15.40;64.60;;;;;;5033470;28;20005;-87
2022/05/16 02:25:39;;;;;;;4.22;2.00;;;15.50;64.60;;;;;;5057454;28;20023;-86
2022/05/16 02:28:06;;;;;;;3.40;2.42;;;15.50;64.70;;;;;;5050235;28;20032;-86
2022/05/16 02:30:32;;;;;;;5.05;2.38;;;15.40;64.80;;;;;;5050606;28;20041;-87
2022/05/16 02:32:58;;;;;;;3.28;2.08;;;15.40;65.50;;;;;;5036517;28;20133;-87
2022/05/16 02:35:24;;;;;;;4.13;1.80;;;15.40;64.90;;;;;;5042289;28;22788;-88
2022/05/16 02:37:50;;;;;;;2.03;1.88;;;15.40;65.00;;;;;;5034786;28;20028;-88
2022/05/16 02:40:17;;;;;;;3.90;2.08;;;15.50;65.10;;;;;;5033891;28;20485;-88
2022/05/16 02:42:43;;;;;;;2.67;2.00;;;15.40;65.10;;;;;;5054758;28;20044;-86
2022/05/16 02:45:09;;;;;;;5.82;2.35;;;15.40;65.30;;;;;;5051065;28;20030;-85
2022/05/16 02:47:35;;;;;;;4.07;2.47;;;15.40;65.40;;;;;;5050784;28;20017;-85
2022/05/16 02:50:02;;;;;;;4.60;2.88;;;15.30;65.60;;;;;;5048787;28;20051;-85
2022/05/16 02:52:28;;;;;;;6.07;2.83;;;15.30;65.80;;;;;;5041349;28;20374;-87
2022/05/16 02:54:54;;;;;;;3.20;2.90;;;15.30;66.00;;;;;;5028576;28;20083;-87
2022/05/16 02:57:19;;;;;;;4.68;2.53;;;15.30;66.10;;;;;;5031109;28;20051;-88
2022/05/16 02:59:45;;;;;;;6.65;3.00;;;15.20;66.00;;;;;;5026155;28;20071;-87
2022/05/16 03:02:11;;;;;;;5.20;2.90;;;15.20;66.10;;;;;;5015916;28;20466;-88
2022/05/16 03:04:38;;;;;;;6.20;2.92;;;15.20;66.20;;;;;;5021473;28;20040;-87
2022/05/16 03:07:04;;;;;;;3.33;3.03;;;15.20;66.40;;;;;;5032927;28;20021;-88
2022/05/16 03:09:30;;;;;;;5.53;3.63;;;15.20;66.50;;;;;;5028838;28;20101;-89
2022/05/16 03:11:56;;;;;;;6.15;3.65;;;15.20;66.60;;;;;;5038723;28;20574;-88
2022/05/16 03:14:23;;;;;;;4.97;3.72;;;15.10;66.60;;;;;;5032243;28;20029;-88
2022/05/16 03:16:49;;;;;;;5.28;4.18;;;15.10;66.80;;;;;;5033887;28;20029;-87
2022/05/16 03:19:15;;;;;;;9.25;4.13;;;15.10;66.80;;;;;;5027158;28;20053;-87
2022/05/16 03:21:41;;;;;;;5.57;4.40;;;15.10;67.00;;;;;;5028015;28;20018;-86
2022/05/16 03:24:10;;;;;;;11.10;4.18;;;15.10;67.10;;;;;;5030755;28;20105;-88
2022/05/16 03:26:37;;;;;;;3.53;3.22;;;15.10;67.20;;;;;;5022482;28;20021;-87
2022/05/16 03:29:05;;;;;;;5.20;3.40;;;15.00;67.10;;;;;;5029954;28;20386;-87
2022/05/16 03:31:30;;;;;;;4.57;3.00;;;15.00;67.40;;;;;;5024789;28;20320;-87
2022/05/16 03:33:56;;;;;;;6.50;3.50;;;15.00;67.50;;;;;;5026475;28;20022;-88
2022/05/16 03:36:21;;;;;;;6.90;3.17;;;15.10;67.70;;;;;;5023395;28;20057;-86
2022/05/16 03:41:31;;;;;;;3.97;3.10;;;15.10;67.60;;;;;;5032406;28;20102;-88
2022/05/16 03:43:56;;;;;;;5.95;2.95;;;15.10;67.40;;;;;;5030806;28;20021;-88
2022/05/16 03:46:24;;;;;;;3.70;3.05;;;15.10;67.60;;;;;;5030363;28;20026;-86
2022/05/16 03:48:49;;;;;;;4.93;2.92;;;15.10;67.60;;;;;;5024381;28;20070;-88
2022/05/16 03:51:15;;;;;;;4.30;2.90;;;15.10;67.80;;;;;;5035574;28;20052;-87
2022/05/16 03:53:47;;;;;;;6.00;3.10;;;15.10;67.90;;;;;;5028836;28;20112;-88
2022/05/16 03:56:18;;;;;;;3.55;2.80;;;15.10;67.90;;;;;;5029960;28;20123;-88
2022/05/16 03:58:44;;;;;;;3.75;3.10;;;15.10;68.10;;;;;;5029701;28;20095;-87
2022/05/16 04:01:11;;;;;;;5.35;3.05;;;15.10;68.00;;;;;;5023691;28;20026;-88
2022/05/16 04:03:37;;;;;;;5.13;2.60;;;15.10;68.00;;;;;;5041087;28;20473;-88
2022/05/16 04:06:04;;;;;;;4.40;2.90;;;15.10;68.30;;;;;;5028743;28;20400;-88
2022/05/16 04:08:31;;;;;;;6.05;2.90;;;15.10;68.30;;;;;;5042725;28;20373;-86
2022/05/16 04:10:58;;;;;;;9.40;3.30;;;15.10;68.40;;;;;;5051320;28;20032;-86
2022/05/16 04:13:23;;;;;;;4.43;3.10;;;15.10;69.00;;;;;;5039938;28;20473;-88
2022/05/16 04:15:49;;;;;;;3.33;3.03;;;15.10;68.50;;;;;;5028009;28;20025;-85
2022/05/16 04:18:26;;;;;;;4.97;3.42;;;15.10;68.60;;;;;;5060650;22;20044;-91
2022/05/16 04:20:52;;;;;;;5.57;3.58;;;15.10;69.00;;;;;;5069990;28;20052;-91
2022/05/16 04:23:27;;;;;;;4.25;3.13;;;15.10;68.80;;;;;;5070892;28;20029;-91
2022/05/16 04:25:53;;;;;;;5.75;4.05;;;15.10;69.00;;;;;;5052548;28;21013;-89
2022/05/16 04:28:19;;;;;;;7.05;3.97;;;15.10;68.70;;;;;;5048638;28;20037;-89
2022/05/16 04:30:44;;;;;;;7.35;3.75;;;15.00;68.70;;;;;;5047920;28;20048;-89
2022/05/16 04:33:13;;;;;;;9.50;4.63;;;15.00;69.00;;;;;;5037736;28;20034;-91
2022/05/16 04:35:38;;;;;;;5.65;4.43;;;15.00;69.20;;;;;;5048264;28;20043;-90
2022/05/16 04:38:05;;;;;;;5.10;3.97;;;15.00;69.10;;;;;;5046817;28;20504;-89
2022/05/16 04:40:32;;;;;;;6.45;4.60;;;15.00;69.20;;;;;;5049519;28;20133;-90
2022/05/16 04:42:58;;;;;;;5.63;4.30;;;15.00;69.10;;;;;;5062952;28;20012;-89
2022/05/16 04:45:29;;;;;;;9.88;4.70;;;15.00;69.20;;;;;;5072320;28;20088;-89
2022/05/16 04:48:01;;;;;;;7.10;4.65;;;15.00;69.30;;;;;;5049847;28;20029;-90
2022/05/16 04:50:29;;;;;;;5.75;4.53;;;15.10;69.40;;;;;;5050002;28;20029;-90
2022/05/16 04:52:56;;;;;;;7.50;4.40;;;15.20;69.30;;;;;;5050591;28;20025;-90
2022/05/16 04:55:27;;;;;;;6.55;4.50;;;15.20;69.30;;;;;;5049831;28;20033;-90
2022/05/16 04:57:53;;;;;;;6.00;4.00;;;15.30;69.40;;;;;;5051065;28;20484;-90
2022/05/16 05:00:25;;;;;;;6.35;4.03;;;15.40;69.30;;;;;;5050252;28;20560;-90
2022/05/16 05:02:58;;;;;;;9.10;6.40;;;15.40;69.40;;;;;;5050739;28;20029;-90
2022/05/16 05:05:26;;;;;;;5.85;5.18;;;15.40;69.00;;;;;;5050529;28;20055;-89
2022/05/16 05:07:55;;;;;;;6.43;4.78;;;15.40;69.20;;;;;;5052962;28;20185;-91
2022/05/16 05:16:07;;;;;;;7.40;4.13;;;15.30;69.50;;;;;;5057067;28;20063;-90
2022/05/16 05:18:33;;;;;;;9.40;4.50;;;15.20;69.60;;;;;;5053886;28;20022;-91
2022/05/16 05:20:59;;;;;;;8.13;4.07;;;15.20;69.60;;;;;;5048159;28;20021;-91
2022/05/16 05:23:27;;;;;;;5.68;3.75;;;15.20;69.70;;;;;;5054098;28;20385;-90
2022/05/16 05:25:53;;;;;;;5.38;4.20;;;15.30;69.80;;;;;;5052784;28;20013;-90
2022/05/16 05:28:19;;;;;;;5.07;3.63;;;15.40;69.60;;;;;;5053639;28;20032;-89
2022/05/16 05:30:46;;;;;;;4.82;3.88;;;15.50;69.50;;;;;;5052841;28;20107;-91
2022/05/16 05:33:12;;;;;;;4.85;3.72;;;15.50;69.40;;;;;;5052328;28;20029;-90
2022/05/16 05:35:37;;;;;;;5.47;4.13;;;15.60;69.60;;;;;;5070778;28;20080;-90
2022/05/16 05:38:03;;;;;;;8.30;3.83;;;15.70;69.70;;;;;;5053663;28;20060;-91
2022/05/16 05:40:29;;;;;;;7.88;3.80;;;15.80;69.80;;;;;;5045855;28;20028;-90
2022/05/16 05:42:55;;;;;;;13.75;4.05;;;15.90;69.80;;;;;;5053149;28;20021;-90
2022/05/16 05:45:21;;;;;;;5.22;3.05;;;16.00;69.80;;;;;;5052058;28;20039;-90
2022/05/16 05:47:46;;;;;;;6.55;3.15;;;16.10;69.90;;;;;;5056212;28;20028;-91
2022/05/16 05:50:12;;;;;;;5.43;3.25;;;16.20;69.80;;;;;;5052890;28;20092;-92
2022/05/16 05:52:38;;;;;;;6.82;3.45;;;16.30;69.70;;;;;;5054796;28;20059;-91
2022/05/16 05:55:05;;;;;;;4.45;2.72;;;16.40;69.60;;;;;;5043494;28;20024;-91
2022/05/16 05:57:30;;;;;;;6.28;3.38;;;16.40;69.40;;;;;;5061089;28;20040;-90
2022/05/16 05:59:56;;;;;;;3.53;2.90;;;16.50;69.40;;;;;;5057269;28;20068;-88
2022/05/16 06:02:23;;;;;;;5.72;2.78;;;16.60;69.40;;;;;;5052206;28;20445;-90
2022/05/16 06:04:49;;;;;;;4.82;2.88;;;16.70;69.20;;;;;;5076072;28;20045;-89
2022/05/16 06:07:15;;;;;;;3.45;2.28;;;16.80;69.20;;;;;;5063366;28;20023;-90
2022/05/16 06:09:41;;;;;;;4.30;2.35;;;16.90;68.90;;;;;;5054706;28;20116;-90
2022/05/16 06:12:08;;;;;;;6.68;2.17;;;17.00;68.60;;;;;;5054274;28;20370;-90
2022/05/16 06:14:36;;;;;;;2.85;2.17;;;17.00;68.40;;;;;;5052758;28;20302;-90
2022/05/16 06:17:01;;;;;;;5.50;2.25;;;17.20;68.40;;;;;;5054323;28;20052;-90
2022/05/16 06:19:27;;;;;;;5.82;3.08;;;17.20;68.40;;;;;;5046350;28;20051;-90
2022/05/16 06:21:53;;;;;;;3.22;2.80;;;17.30;68.40;;;;;;5049904;28;20408;-90
2022/05/16 06:27:06;;;;;;;7.40;3.10;;;17.30;68.40;;;;;;5016169;28;20044;-91
2022/05/16 06:29:35;;;;;;;5.60;2.55;;;17.30;68.50;;;;;;5053882;28;20028;-91
2022/05/16 06:32:01;;;;;;;3.85;2.55;;;17.40;68.70;;;;;;5055752;28;20031;-86
2022/05/16 06:34:26;;;;;;;3.47;2.25;;;17.50;69.00;;;;;;5049711;28;20128;-87
2022/05/16 06:36:52;;;;;;;7.07;2.45;;;17.60;69.20;;;;;;5053824;28;20025;-87
2022/05/16 06:39:17;;;;;;;4.20;2.30;;;17.60;69.70;;;;;;5047430;28;20458;-87
2022/05/16 06:41:43;;;;;;;2.45;2.25;;;17.60;69.10;;;;;;5053440;28;20028;-86
2022/05/16 06:44:13;;;;;;;4.05;2.58;;;17.50;68.90;;;;;;5052815;28;20028;-86
2022/05/16 06:46:39;;;;;;;7.88;2.80;;;17.50;68.90;;;;;;5053857;28;20021;-86
2022/05/16 06:49:05;;;;;;;6.97;2.45;;;17.50;69.00;;;;;;5053642;28;20024;-86
2022/05/16 06:51:30;;;;;;;4.80;2.80;;;17.50;69.10;;;;;;5055882;28;20035;-86
2022/05/16 06:53:56;;;;;;;8.60;3.88;;;17.50;69.20;;;;;;5054069;28;20032;-87
2022/05/16 06:56:22;;;;;;;5.72;3.60;;;17.30;69.40;;;;;;5052794;28;20032;-87
2022/05/16 06:58:51;;;;;;;4.68;3.38;;;17.20;69.60;;;;;;5051702;28;22922;-88
2022/05/16 07:01:17;;;;;;;6.47;3.72;;;17.10;70.30;;;;;;5054464;28;20037;-86
2022/05/16 07:03:43;;;;;;;6.25;3.90;;;16.90;71.10;;;;;;5048942;28;20052;-86
2022/05/16 07:06:09;;;;;;;6.72;4.30;;;16.70;71.90;;;;;;5049965;28;20053;-88
2022/05/16 07:08:35;;;;;;;6.13;3.97;;;16.40;72.90;;;;;;5050595;28;20071;-86
2022/05/16 07:11:00;;;;;;;6.47;4.28;;;16.10;74.10;;;;;;5050819;28;20485;-86
2022/05/16 07:13:27;;;;;;;9.38;4.40;;;15.90;75.30;;;;;;5066618;28;20013;-85
2022/05/16 07:15:54;;;;;;;7.50;4.38;;;15.70;76.30;;;;;;5063160;28;20116;-86
2022/05/16 07:18:20;;;;;;;7.05;4.57;;;15.70;77.60;;;;;;5059208;28;20048;-86
2022/05/16 07:20:46;;;;;;;8.85;4.57;;;15.70;78.60;;;;;;5052150;28;20021;-87
2022/05/16 07:23:13;;;;;;;9.43;4.78;;;15.80;79.00;;;;;;5051784;28;20029;-87
2022/05/16 07:28:27;;;;;;;13.77;4.28;;;15.70;79.60;;;;;;5035099;28;20033;-84
2022/05/16 07:30:53;;;;;;;6.90;4.28;;;15.60;80.00;;;;;;5052583;28;20024;-88
2022/05/16 07:33:19;;;;;;;7.65;4.72;;;15.70;80.70;;;;;;5050995;28;20032;-87
2022/05/16 07:35:50;;;;;;;10.70;4.68;;;15.90;80.90;;;;;;5051256;28;20025;-86
2022/05/16 07:38:16;;;;;;;10.90;5.00;;;16.00;80.70;;;;;;5052807;28;20028;-86
2022/05/16 07:40:41;;;;;;;7.85;4.40;;;16.20;80.70;;;;;;5052723;28;20021;-87
2022/05/16 07:43:07;;;;;;;6.47;4.32;;;16.30;80.50;;;;;;5050144;28;20021;-87
2022/05/16 07:45:32;;;;;;;10.02;4.00;;;16.40;80.60;;;;;;5048814;28;20060;-87
2022/05/16 07:48:02;;;;;;;9.30;4.75;;;16.50;80.70;;;;;;5054158;28;20079;-87
2022/05/16 07:50:29;;;;;;;8.32;4.30;;;16.60;80.80;;;;;;5055433;28;20013;-87
2022/05/16 07:52:55;;;;;;;8.68;3.95;;;16.80;81.20;;;;;;5051569;28;20036;-87
2022/05/16 07:55:24;;;;;;;9.02;3.72;;;17.00;81.70;;;;;;5051274;28;20021;-88
2022/05/16 07:57:50;;;;;;;11.40;3.83;;;17.10;81.90;;;;;;5050041;28;20416;-86
2022/05/16 08:00:18;;;;;;;6.53;3.13;;;17.20;81.80;;;;;;5053117;28;20096;-87
2022/05/16 08:02:43;;;;;;;5.10;3.20;;;17.50;82.20;;;;;;5050686;28;20089;-87
2022/05/16 08:05:12;;;;;;;7.90;2.80;;;17.90;81.90;;;;;;5051449;28;20071;-87
2022/05/16 08:10:29;;;;;;;7.05;2.75;;;18.30;81.70;;;;;;5046316;28;20115;-87
2022/05/16 08:10:29;;;;;;;7.05;2.90;;;18.50;81.60;;;;;;5056962;28;20432;-86
2022/05/16 08:12:56;;;;;;;3.80;2.83;;;18.70;81.20;;;;;;5049537;28;20448;-88
2022/05/16 08:15:22;;;;;;;3.38;2.70;;;18.90;81.00;;;;;;5047679;28;20040;-87
2022/05/16 08:17:47;;;;;;;5.03;2.78;;;19.00;80.60;;;;;;5051879;28;20033;-87
2022/05/16 08:20:13;;;;;;;7.30;3.13;;;19.10;80.90;;;;;;5051077;28;20029;-87
2022/05/16 08:22:38;;;;;;;10.65;5.18;;;19.20;81.00;;;;;;5051729;28;20108;-87
2022/05/16 08:25:05;;;;;;;4.30;2.80;;;19.20;81.00;;;;;;5051054;28;20033;-87
2022/05/16 08:27:30;;;;;;;4.63;2.60;;;19.20;81.00;;;;;;5054712;28;20029;-86
2022/05/16 08:29:56;;;;;;;6.82;3.17;;;19.30;81.00;;;;;;5052630;28;20036;-87
2022/05/16 08:32:25;;;;;;;5.65;2.90;;;19.30;80.80;;;;;;5054521;28;20396;-89
2022/05/16 08:34:51;;;;;;;5.53;3.10;;;19.30;80.90;;;;;;5052438;28;20120;-87
2022/05/16 08:40:04;;;;;;;3.30;2.70;;;19.40;81.30;;;;;;5056461;28;20504;-87
2022/05/16 08:42:48;;;;;;;6.32;2.78;;;19.40;81.30;;;;;;5055848;28;20108;-87
2022/05/16 08:45:38;;;;;;;4.65;2.90;;;19.50;81.40;;;;;;5052646;28;20503;-87
2022/05/16 08:48:28;;;;;;;5.80;2.92;;;19.70;81.20;;;;;;5055215;28;20028;-89
2022/05/16 08:51:04;;;;;;;4.07;2.85;;;19.80;80.80;;;;;;5050318;28;20029;-89
2022/05/16 08:53:29;;;;;;;7.68;2.90;;;19.90;80.70;;;;;;5060342;28;20075;-90
2022/05/16 08:56:05;;;;;;;8.82;2.90;;;20.00;80.60;;;;;;5072265;28;20033;-90
2022/05/16 08:58:42;;;;;;;4.35;2.85;;;20.20;80.80;;;;;;5072375;28;20040;-89
2022/05/16 09:01:21;;;;;;;5.47;2.47;;;20.40;80.60;;;;;;5052341;28;21161;-92
2022/05/16 09:03:53;;;;;;;3.10;2.80;;;21.10;80.40;;;;;;5054091;28;20075;-89
2022/05/16 09:06:37;;;;;;;4.05;2.67;;;21.70;79.90;;;;;;5049239;28;20031;-89
2022/05/16 09:09:15;;;;;;;5.20;2.35;;;22.20;78.70;;;;;;5048521;28;20493;-90
2022/05/16 09:12:12;;;;;;;2.67;2.33;;;22.30;78.00;;;;;;5047449;28;20029;-91
2022/05/16 09:15:11;;;;;;;3.40;2.05;;;22.60;77.90;;;;;;5052245;28;20025;-88
2022/05/16 09:18:22;;;;;;;3.10;2.42;;;22.80;77.40;;;;;;5049912;28;20058;-88
2022/05/16 09:21:15;;;;;;;6.60;2.38;;;22.70;76.80;;;;;;5065968;28;20053;-88
2022/05/16 09:24:00;;;;;;;9.88;3.67;;;22.70;76.50;;;;;;5048128;28;20067;-88
2022/05/16 09:27:04;;;;;;;6.20;2.78;;;23.10;75.60;;;;;;5052556;28;20021;-89
2022/05/16 09:29:35;;;;;;;4.07;2.58;;;23.40;75.30;;;;;;5049435;28;20029;-86
2022/05/16 09:32:09;;;;;;;3.78;2.70;;;23.50;75.60;;;;;;5057734;28;20029;-87
2022/05/16 09:34:35;;;;;;;3.80;2.85;;;23.20;75.70;;;;;;5045218;28;20216;-86
2022/05/16 09:37:01;;;;;;;7.53;2.78;;;23.20;75.70;;;;;;5048912;28;20032;-86
2022/05/16 09:39:33;;;;;;;3.20;2.40;;;23.40;75.70;;;;;;5054872;28;20029;-86
2022/05/16 09:42:05;;;;;;;5.30;2.72;;;24.30;74.70;;;;;;5058593;28;20028;-85
2022/05/16 09:44:43;;;;;;;5.63;2.60;;;24.40;73.90;;;;;;5066758;28;20401;-85
2022/05/16 09:47:29;;;;;;;4.43;2.78;;;24.20;74.40;;;;;;5066083;28;20029;-85
2022/05/16 09:50:19;;;;;;;6.78;2.70;;;23.90;74.90;;;;;;5045815;28;20032;-87
2022/05/16 09:52:49;;;;;;;7.70;3.17;;;23.80;75.00;;;;;;5059112;28;20407;-84
2022/05/16 09:55:26;;;;;;;5.15;2.83;;;25.00;73.20;;;;;;5051687;28;20039;-85
2022/05/16 09:57:59;;;;;;;8.20;2.60;;;25.10;72.40;;;;;;5050258;28;20488;-86
2022/05/16 10:00:25;;;;;;;7.35;2.88;;;26.30;71.10;;;;;;5050139;28;20083;-87
2022/05/16 10:03:00;;;;;;;2.38;2.15;;;28.20;68.00;;;;;;5047115;28;20443;-87
2022/05/16 10:05:29;;;;;;;5.30;2.63;;;29.50;65.50;;;;;;5052878;28;20095;-88
2022/05/16 10:08:03;;;;;;;4.13;2.50;;;30.90;62.40;;;;;;5056369;28;20025;-87
2022/05/16 10:10:36;;;;;;;6.68;2.67;;;32.00;59.20;;;;;;5051288;28;20025;-87
2022/05/16 10:13:02;;;;;;;5.95;2.90;;;32.20;57.40;;;;;;5048795;28;20029;-86
2022/05/16 10:15:28;;;;;;;4.22;2.30;;;32.80;56.50;;;;;;5051834;28;20055;-85
2022/05/16 10:17:56;;;;;;;4.38;2.63;;;32.80;56.60;;;;;;5052687;28;20029;-86
2022/05/16 10:49:18;;;;;;;7.38;3.35;;;30.40;55.20;;;;;;5026193;28;20064;-86
2022/05/16 10:52:09;;;;;;;5.20;2.38;;;29.70;55.30;;;;;;5016507;28;20061;-86
2022/05/16 10:54:35;;;;;;;7.45;2.55;;;29.30;56.40;;;;;;5016132;28;20028;-87
2022/05/16 10:57:04;;;;;;;4.72;2.53;;;29.10;56.40;;;;;;5017872;28;20378;-86
2022/05/16 10:59:58;;;;;;;6.35;2.58;;;29.00;56.60;;;;;;5003190;28;20029;-86
2022/05/16 11:03:01;;;;;;;5.05;2.80;;;28.70;56.10;;;;;;5033410;28;20025;-87
2022/05/16 11:05:48;;;;;;;5.13;3.13;;;28.00;57.20;;;;;;5018462;28;20029;-87
2022/05/16 11:08:40;;;;;;;5.53;2.97;;;27.30;57.90;;;;;;5011765;28;20409;-89
2022/05/16 11:11:33;;;;;;;6.00;3.17;;;26.70;58.60;;;;;;5012602;28;20041;-88
2022/05/16 11:14:22;;;;;;;7.43;3.15;;;26.30;59.10;;;;;;5011268;28;20037;-90
2022/05/16 11:16:53;;;;;;;7.30;2.90;;;25.90;59.80;;;;;;5028992;28;20022;-89
2022/05/16 11:19:30;;;;;;;8.32;3.20;;;25.60;60.40;;;;;;5015679;28;20052;-88
2022/05/16 11:22:10;;;;;;;4.63;3.05;;;25.40;60.90;;;;;;5016106;28;20025;-89
2022/05/16 11:25:02;;;;;;;4.30;2.92;;;25.30;61.30;;;;;;5007067;28;20018;-88
2022/05/16 11:27:57;;;;;;;8.07;2.80;;;25.20;61.30;;;;;;4995632;28;20033;-89
2022/05/16 11:30:52;;;;;;;6.53;2.90;;;25.10;61.10;;;;;;5031602;28;20112;-92
2022/05/16 11:34:14;;;;;;;9.38;2.80;;;24.90;61.50;;;;;;5046772;28;20060;-94
2022/05/16 11:37:18;;;;;;;9.50;2.88;;;24.80;61.30;;;;;;4947698;29;20031;-93
2022/05/16 11:40:20;;;;;;;7.07;2.70;;;24.70;61.10;;;;;;4997641;28;20033;-92
2022/05/16 11:43:36;;;;;;;6.85;2.85;;;24.50;61.30;;;;;;5015438;28;20036;-91
2022/05/16 11:46:21;;;;;;;5.82;2.75;;;24.40;61.60;;;;;;4997464;28;20013;-92
2022/05/16 11:48:57;;;;;;;9.30;2.83;;;24.30;61.90;;;;;;5025099;28;20037;-93
2022/05/16 11:52:21;;;;;;;;;;;;;;;;;;;;;
2022/05/16 12:54:49;;;;;;;4.10;1.10;;;22.90;63.90;;;;;;5002747;28;20081;-88
2022/05/16 12:57:21;;;;;;;3.15;1.00;;;22.80;63.80;;;;;;4987330;28;20691;-90
2022/05/16 13:00:08;;;;;;;6.43;1.33;;;22.80;63.90;;;;;;4991615;28;20026;-87
2022/05/16 13:03:20;;;;;;;3.70;1.40;;;22.70;63.90;;;;;;4988914;28;20030;-86
2022/05/16 13:06:03;;;;;;;3.92;1.30;;;22.70;63.90;;;;;;4966388;28;20555;-85
2022/05/16 13:08:49;;;;;;;3.55;0.98;;;22.70;64.10;;;;;;4976387;28;20027;-91
2022/05/16 13:11:25;;;;;;;5.50;1.40;;;22.70;64.10;;;;;;4974602;28;20038;-90
2022/05/16 13:14:10;;;;;;;2.22;1.10;;;22.70;64.20;;;;;;4990479;28;20030;-91
2022/05/16 13:16:40;;;;;;;1.73;0.90;;;22.70;64.20;;;;;;4982999;28;20023;-90
2022/05/16 13:19:13;;;;;;;5.68;1.10;;;22.60;64.40;;;;;;4975829;28;20034;-88
2022/05/16 13:22:25;;;;;;;3.78;1.10;;;22.60;64.20;;;;;;4984844;28;20038;-87
2022/05/16 13:24:56;;;;;;;3.13;1.00;;;22.50;64.10;;;;;;4989588;28;20042;-88
2022/05/16 13:30:13;;;;;;;4.47;1.00;;;22.50;64.70;;;;;;4996293;28;20504;-88
2022/05/16 13:32:39;;;;;;;5.13;0.90;;;22.40;64.10;;;;;;4990208;28;20026;-88
2022/05/16 13:35:07;;;;;;;7.57;0.98;;;22.40;64.20;;;;;;4994613;28;20458;-87
2022/05/16 13:37:50;;;;;;;3.83;1.20;;;22.40;64.10;;;;;;4994155;28;20026;-87
2022/05/16 13:40:26;;;;;;;1.67;1.13;;;22.40;63.90;;;;;;4990014;28;20055;-87
2022/05/16 13:42:54;;;;;;;1.88;0.90;;;22.40;63.80;;;;;;4995264;28;20026;-86
2022/05/16 14:14:09;;;;;;;2.38;0.90;;;21.20;65.80;;;;;;4955959;28;20043;-86
2022/05/16 14:32:06;;;;;;;2.90;0.80;;;20.60;68.10;;;;;;4953805;28;20093;-87
2022/05/16 14:41:56;;;;;;;4.13;0.98;;;20.40;69.30;;;;;;4905341;29;20055;-87
2022/05/16 14:45:06;;;;;;;1.02;0.70;;;20.30;69.90;;;;;;4912748;29;20069;-87
2022/05/16 15:04:54;;;;;;;3.60;1.30;;;20.30;72.10;;;;;;4914668;29;20461;-87
2022/05/16 15:10:54;;;;;;;2.55;1.35;;;20.40;72.30;;;;;;4947667;29;20094;-88
2022/05/16 15:13:44;;;;;;;3.10;1.13;;;20.40;72.50;;;;;;4939142;28;20197;-87
2022/05/16 15:17:08;;;;;;;3.50;1.50;;;20.50;72.70;;;;;;4941492;28;20033;-87
2022/05/16 15:20:41;;;;;;;4.18;1.40;;;20.60;73.30;;;;;;4975337;28;20035;-87
2022/05/16 15:23:51;;;;;;;4.28;1.23;;;20.70;73.00;;;;;;4991822;28;20033;-88
2022/05/16 15:27:24;;;;;;;4.93;1.80;;;20.80;73.20;;;;;;5013010;28;20018;-88
2022/05/16 15:30:36;;;;;;;4.75;1.77;;;20.80;73.50;;;;;;5007369;28;20045;-87
2022/05/16 15:34:08;;;;;;;3.45;1.75;;;20.90;73.80;;;;;;5121137;23;20052;-87
2022/05/16 15:37:29;;;;;;;3.70;1.80;;;21.00;74.20;;;;;;5032843;28;20032;-87
2022/05/16 15:48:23;;;;;;;8.48;1.80;;;21.40;74.60;;;;;;5029585;28;20056;-88
2022/05/16 15:55:22;;;;;;;3.05;1.83;;;21.50;74.80;;;;;;4985090;28;20421;-88
2022/05/16 15:58:59;;;;;;;4.25;1.95;;;21.60;74.80;;;;;;4915855;29;20028;-88
2022/05/16 16:02:31;;;;;;;4.40;1.60;;;21.70;74.70;;;;;;4876485;29;20527;-87
2022/05/16 16:13:01;;;;;;;4.43;1.85;;;21.80;74.60;;;;;;4856631;29;20036;-87
2022/05/16 16:16:30;;;;;;;4.82;1.88;;;21.80;75.00;;;;;;4902912;29;20119;-88
2022/05/16 16:26:47;;;;;;;3.42;1.60;;;21.80;75.00;;;;;;5006798;28;20024;-88
2022/05/16 18:28:26;;;;;;;3.83;1.85;;;19.90;84.10;;;;;;5076431;28;20035;-90
2022/05/16 18:55:26;;;;;;;6.93;1.95;;;19.70;86.00;;;;;;5092052;28;20040;-88
2022/05/16 19:35:51;;;;;;;8.30;1.83;;;19.30;88.10;;;;;;4980311;28;20069;-88
2022/05/16 22:05:18;;;;;;;4.07;2.60;;;18.70;87.00;;;;;;5067470;28;20056;-89
2022/05/16 22:18:59;;;;;;;6.68;2.80;;;18.50;87.60;;;;;;5014424;22;20069;-88
2022/05/16 22:21:37;;;;;;;4.13;2.53;;;18.50;87.80;;;;;;5061554;28;20374;-88
2022/05/16 22:24:04;;;;;;;5.10;2.72;;;18.50;88.30;;;;;;5053881;28;20028;-89
2022/05/16 22:26:32;;;;;;;4.43;2.83;;;18.50;88.50;;;;;;5071461;28;20107;-87
2022/05/16 22:28:58;;;;;;;3.38;2.38;;;18.60;88.60;;;;;;5083059;28;20028;-87
2022/05/16 22:31:24;;;;;;;6.90;2.92;;;18.60;88.90;;;;;;5076891;28;20017;-87
2022/05/16 22:33:50;;;;;;;3.25;2.60;;;18.60;88.90;;;;;;5076307;28;20076;-88